Flight Track Log - Related Links

Times and Time Zones

All times are in EST time to prevent confusion due to time zone crossing. See the N479B flight status page for this flight to view local times or setup timezone preferences in your user account.

Time Position Orientation Groundspeed Altitude Reporting Facility
EST Latitude Longitude Course Direction KTS MPH feet Rate Location/Type
Thu 09:25:00 AM 34.2317 -88.9244 242° Southwest 207 238 5,600  Level Memphis Center
Thu 09:26:02 AM 34.1964 -88.9889 237° Southwest 196 226 7,400 1,707 Climbing Memphis Center
Thu 09:27:03 AM 34.1603 -89.0486 234° Southwest 216 249 9,100 1,659 Climbing Memphis Center
Thu 09:28:05 AM 34.1286 -89.1108 238° Southwest 218 251 10,800 1,707 Climbing Memphis Center
Thu 09:29:00 AM 34.0844 -89.1060 242° Southwest  Level FlightAware Approximate
Thu 09:29:06 AM 34.0925 -89.1742 235° Southwest 215 247 12,600  Level Memphis Center
Thu 09:30:00 AM 34.0526 -89.1776 242° Southwest  Level FlightAware Approximate
Thu 09:30:07 AM 34.0597 -89.2331 236° Southwest 213 245 14,300  Level Memphis Center
Thu 09:31:09 AM 34.0272 -89.2911 236° Southwest 211 243 16,000 1,659 Climbing Memphis Center
Thu 09:32:10 AM 33.9928 -89.3497 235° Southwest 214 246 17,700 976 Climbing Memphis Center
Thu 09:33:12 AM 33.9575 -89.4133 236° Southwest 225 259 18,000 146 Climbing Memphis Center
Thu 09:34:13 AM 33.9144 -89.4894 236° Southwest 265 305 18,000  Level Memphis Center
Thu 09:35:15 AM 33.8708 -89.5656 235° Southwest 276 318 18,000  Level Memphis Center
Thu 09:36:16 AM 33.8183 -89.6589 236° Southwest 280 322 18,000  Level Memphis Center
Thu 09:37:18 AM 33.7744 -89.7364 236° Southwest 282 325 18,000  Level Memphis Center
Thu 09:38:19 AM 33.7292 -89.8147 235° Southwest 285 328 18,000  Level Memphis Center
Thu 09:39:21 AM 33.6842 -89.8925 235° Southwest 286 329 18,000  Level Memphis Center
Thu 09:40:22 AM 33.6400 -89.9708 236° Southwest 286 329 18,000  Level Memphis Center
Thu 09:41:23 AM 33.5956 -90.0481 235° Southwest 285 328 18,000  Level Memphis Center
Thu 09:42:25 AM 33.5506 -90.1267 236° Southwest 286 329 18,000  Level Memphis Center
Thu 09:43:26 AM 33.4961 -90.2214 235° Southwest 288 331 18,000 -49 Level Memphis Center
Thu 09:44:28 AM 33.4225 -90.2683 208° Southwest 309 356 17,900 -484 Descending Memphis Center
Thu 09:45:30 AM 33.3278 -90.2525 172° South 342 394 17,000 -927 Descending Memphis Center
Thu 09:46:31 AM 33.2331 -90.2372 172° South 348 400 16,000 -1,024 Descending Memphis Center
Thu 09:47:33 AM 33.1389 -90.2208 172° South 346 398 14,900 -1,258 Descending Memphis Center
Thu 09:48:35 AM 33.0261 -90.2003 171° South 345 397 13,400 -1,463 Descending Memphis Center
Thu 09:49:36 AM 32.9347 -90.1844 172° South 342 394 11,900 -1,463 Descending Memphis Center
Thu 09:50:38 AM 32.8444 -90.1647 170° South 338 389 10,400 -1,452 Descending Memphis Center
Thu 09:51:40 AM 32.7608 -90.1308 161° South 329 379 8,900 -1,512 Descending Memphis Center
Thu 09:52:41 AM 32.6861 -90.1031 163° South 307 353 7,300 -1,415 Descending Memphis Center
Thu 09:53:43 AM 32.6028 -90.0706 162° South 281 323 6,000 -629 Descending Memphis Center
Thu 09:54:45 AM 32.5389 -90.0453 162° South 262 302 6,000  Level Memphis Center
Thu 09:55:46 AM 32.4772 -90.0208 162° South 247 284 6,000 -634 Level Memphis Center
Thu 09:56:48 AM 32.4144 -89.9964 162° South 241 277 4,700 -1,306 Descending Memphis Center
Thu 09:57:50 AM 32.3536 -89.9733 162° South 236 272 3,300 -1,161 Descending Memphis Center
Thu 09:58:52 AM 32.2997 -89.9692 176° South 219 252 2,300 -871 Descending Memphis Center
Thu 09:59:54 AM 32.2658 -90.0136 228° Southwest 171 197 1,500 -629 Descending Memphis Center
Thu 10:00:56 AM 32.2625 -90.0525 264° West 139 160 1,000 -339 Descending Memphis Center
Thu 10:01:58 AM 32.2814 -90.0719 319° Northwest 121 139 800 -194 Descending Memphis Center

Login

Don't have an account? Register now (free) for customized features, flight alerts, and more!